sensor_id;sensor_type;location;lat;lon;timestamp;P1;durP1;ratioP1;P2;durP2;ratioP2
8293;SDS011;4185;41.506;24.938;2023-02-01T00:02:19;13.97;;;8.20;;
8293;SDS011;4185;41.506;24.938;2023-02-01T00:04:47;33.10;;;14.63;;
8293;SDS011;4185;41.506;24.938;2023-02-01T00:07:13;12.33;;;8.30;;
8293;SDS011;4185;41.506;24.938;2023-02-01T00:09:40;13.07;;;8.07;;
8293;SDS011;4185;41.506;24.938;2023-02-01T00:12:07;23.53;;;10.10;;
8293;SDS011;4185;41.506;24.938;2023-02-01T00:14:34;24.33;;;11.97;;
8293;SDS011;4185;41.506;24.938;2023-02-01T00:17:03;18.20;;;9.43;;
8293;SDS011;4185;41.506;24.938;2023-02-01T00:19:33;10.47;;;7.17;;
8293;SDS011;4185;41.506;24.938;2023-02-01T00:22:00;18.80;;;8.93;;
8293;SDS011;4185;41.506;24.938;2023-02-01T00:24:27;8.57;;;5.70;;
8293;SDS011;4185;41.506;24.938;2023-02-01T00:26:54;7.40;;;5.53;;
8293;SDS011;4185;41.506;24.938;2023-02-01T00:29:21;7.13;;;5.70;;
8293;SDS011;4185;41.506;24.938;2023-02-01T00:31:49;12.13;;;7.43;;
8293;SDS011;4185;41.506;24.938;2023-02-01T00:34:16;6.30;;;5.70;;
8293;SDS011;4185;41.506;24.938;2023-02-01T00:36:45;8.20;;;5.70;;
8293;SDS011;4185;41.506;24.938;2023-02-01T00:39:12;12.57;;;8.30;;
8293;SDS011;4185;41.506;24.938;2023-02-01T00:41:39;7.23;;;5.37;;
8293;SDS011;4185;41.506;24.938;2023-02-01T00:44:06;8.47;;;5.93;;
8293;SDS011;4185;41.506;24.938;2023-02-01T00:46:33;9.20;;;6.63;;
8293;SDS011;4185;41.506;24.938;2023-02-01T00:49:00;9.17;;;6.70;;
8293;SDS011;4185;41.506;24.938;2023-02-01T00:51:27;11.57;;;6.70;;
8293;SDS011;4185;41.506;24.938;2023-02-01T00:53:56;7.97;;;5.67;;
8293;SDS011;4185;41.506;24.938;2023-02-01T00:56:23;4.93;;;4.13;;
8293;SDS011;4185;41.506;24.938;2023-02-01T00:58:52;9.50;;;5.57;;
8293;SDS011;4185;41.506;24.938;2023-02-01T01:01:20;12.47;;;8.67;;
8293;SDS011;4185;41.506;24.938;2023-02-01T01:03:49;5.40;;;4.90;;
8293;SDS011;4185;41.506;24.938;2023-02-01T01:06:17;5.13;;;4.60;;
8293;SDS011;4185;41.506;24.938;2023-02-01T01:08:47;4.70;;;4.20;;
8293;SDS011;4185;41.506;24.938;2023-02-01T01:11:16;12.40;;;8.93;;
8293;SDS011;4185;41.506;24.938;2023-02-01T01:13:45;16.50;;;8.70;;
8293;SDS011;4185;41.506;24.938;2023-02-01T01:16:12;8.63;;;6.17;;
8293;SDS011;4185;41.506;24.938;2023-02-01T01:18:40;8.10;;;3.73;;
8293;SDS011;4185;41.506;24.938;2023-02-01T01:21:07;6.73;;;5.10;;
8293;SDS011;4185;41.506;24.938;2023-02-01T01:23:35;4.27;;;3.77;;
8293;SDS011;4185;41.506;24.938;2023-02-01T01:26:04;9.93;;;5.70;;
8293;SDS011;4185;41.506;24.938;2023-02-01T01:28:33;6.57;;;5.17;;
8293;SDS011;4185;41.506;24.938;2023-02-01T01:31:00;6.90;;;4.93;;
8293;SDS011;4185;41.506;24.938;2023-02-01T01:33:27;8.43;;;6.27;;
8293;SDS011;4185;41.506;24.938;2023-02-01T01:35:54;5.87;;;4.57;;
8293;SDS011;4185;41.506;24.938;2023-02-01T01:38:21;4.90;;;4.23;;
8293;SDS011;4185;41.506;24.938;2023-02-01T01:40:48;4.30;;;3.97;;
8293;SDS011;4185;41.506;24.938;2023-02-01T01:43:16;5.43;;;4.57;;
8293;SDS011;4185;41.506;24.938;2023-02-01T01:45:49;4.20;;;3.80;;
8293;SDS011;4185;41.506;24.938;2023-02-01T01:48:17;6.03;;;5.37;;
8293;SDS011;4185;41.506;24.938;2023-02-01T01:50:48;7.43;;;5.87;;
8293;SDS011;4185;41.506;24.938;2023-02-01T01:53:19;5.87;;;4.13;;
8293;SDS011;4185;41.506;24.938;2023-02-01T01:55:49;4.93;;;4.53;;
8293;SDS011;4185;41.506;24.938;2023-02-01T01:58:19;4.90;;;3.80;;
8293;SDS011;4185;41.506;24.938;2023-02-01T02:00:51;4.37;;;3.93;;
8293;SDS011;4185;41.506;24.938;2023-02-01T02:03:20;4.33;;;3.93;;
8293;SDS011;4185;41.506;24.938;2023-02-01T02:05:50;5.50;;;4.33;;
8293;SDS011;4185;41.506;24.938;2023-02-01T02:08:20;6.07;;;4.93;;
8293;SDS011;4185;41.506;24.938;2023-02-01T02:10:50;10.50;;;7.67;;
8293;SDS011;4185;41.506;24.938;2023-02-01T02:13:27;22.37;;;13.50;;
8293;SDS011;4185;41.506;24.938;2023-02-01T02:16:00;20.00;;;10.00;;
8293;SDS011;4185;41.506;24.938;2023-02-01T02:18:37;6.20;;;5.37;;
8293;SDS011;4185;41.506;24.938;2023-02-01T02:21:11;7.10;;;5.37;;
8293;SDS011;4185;41.506;24.938;2023-02-01T02:36:07;4.87;;;3.70;;
8293;SDS011;4185;41.506;24.938;2023-02-01T02:38:41;4.60;;;4.20;;
8293;SDS011;4185;41.506;24.938;2023-02-01T02:41:14;5.27;;;4.77;;
8293;SDS011;4185;41.506;24.938;2023-02-01T02:43:58;7.53;;;5.07;;
8293;SDS011;4185;41.506;24.938;2023-02-01T02:46:49;21.17;;;6.83;;
8293;SDS011;4185;41.506;24.938;2023-02-01T02:49:39;4.13;;;3.53;;
8293;SDS011;4185;41.506;24.938;2023-02-01T02:52:33;12.97;;;7.20;;
8293;SDS011;4185;41.506;24.938;2023-02-01T02:55:25;16.23;;;9.83;;
8293;SDS011;4185;41.506;24.938;2023-02-01T02:57:53;16.67;;;9.03;;
8293;SDS011;4185;41.506;24.938;2023-02-01T03:00:40;21.27;;;11.13;;
8293;SDS011;4185;41.506;24.938;2023-02-01T03:03:25;16.87;;;10.37;;
8293;SDS011;4185;41.506;24.938;2023-02-01T03:06:13;10.40;;;6.67;;
8293;SDS011;4185;41.506;24.938;2023-02-01T03:08:42;6.73;;;4.20;;
8293;SDS011;4185;41.506;24.938;2023-02-01T03:11:10;6.43;;;4.47;;
8293;SDS011;4185;41.506;24.938;2023-02-01T03:13:41;5.70;;;5.13;;
8293;SDS011;4185;41.506;24.938;2023-02-01T03:16:12;4.30;;;3.90;;
8293;SDS011;4185;41.506;24.938;2023-02-01T03:18:44;4.60;;;4.20;;
8293;SDS011;4185;41.506;24.938;2023-02-01T03:21:18;3.87;;;3.57;;
8293;SDS011;4185;41.506;24.938;2023-02-01T03:23:49;3.27;;;2.97;;
8293;SDS011;4185;41.506;24.938;2023-02-01T03:26:19;5.33;;;4.10;;
8293;SDS011;4185;41.506;24.938;2023-02-01T03:28:52;4.30;;;3.90;;
8293;SDS011;4185;41.506;24.938;2023-02-01T03:31:22;3.93;;;3.50;;
8293;SDS011;4185;41.506;24.938;2023-02-01T03:33:49;4.57;;;4.17;;
8293;SDS011;4185;41.506;24.938;2023-02-01T03:36:20;6.07;;;4.63;;
8293;SDS011;4185;41.506;24.938;2023-02-01T03:38:54;6.87;;;4.73;;
8293;SDS011;4185;41.506;24.938;2023-02-01T03:41:27;6.63;;;5.23;;
8293;SDS011;4185;41.506;24.938;2023-02-01T03:44:01;10.73;;;5.40;;
8293;SDS011;4185;41.506;24.938;2023-02-01T03:46:35;6.30;;;5.27;;
8293;SDS011;4185;41.506;24.938;2023-02-01T03:49:06;5.53;;;4.53;;
8293;SDS011;4185;41.506;24.938;2023-02-01T03:51:37;4.40;;;4.00;;
8293;SDS011;4185;41.506;24.938;2023-02-01T03:54:06;6.73;;;4.57;;
8293;SDS011;4185;41.506;24.938;2023-02-01T03:56:38;13.97;;;7.30;;
8293;SDS011;4185;41.506;24.938;2023-02-01T03:59:09;8.83;;;6.93;;
8293;SDS011;4185;41.506;24.938;2023-02-01T04:01:37;12.43;;;8.43;;
8293;SDS011;4185;41.506;24.938;2023-02-01T04:04:04;7.17;;;5.23;;
8293;SDS011;4185;41.506;24.938;2023-02-01T04:06:30;9.17;;;5.40;;
8293;SDS011;4185;41.506;24.938;2023-02-01T04:08:59;6.00;;;5.00;;
8293;SDS011;4185;41.506;24.938;2023-02-01T04:11:25;6.33;;;5.27;;
8293;SDS011;4185;41.506;24.938;2023-02-01T04:13:54;12.57;;;6.33;;
8293;SDS011;4185;41.506;24.938;2023-02-01T04:16:21;13.47;;;8.97;;
8293;SDS011;4185;41.506;24.938;2023-02-01T04:18:48;9.47;;;8.30;;
8293;SDS011;4185;41.506;24.938;2023-02-01T04:21:14;13.37;;;6.53;;
8293;SDS011;4185;41.506;24.938;2023-02-01T04:23:41;7.97;;;6.50;;
8293;SDS011;4185;41.506;24.938;2023-02-01T04:26:09;9.67;;;6.23;;
8293;SDS011;4185;41.506;24.938;2023-02-01T04:28:36;13.73;;;7.33;;
8293;SDS011;4185;41.506;24.938;2023-02-01T04:31:03;28.03;;;13.10;;
8293;SDS011;4185;41.506;24.938;2023-02-01T04:33:30;22.70;;;12.57;;
8293;SDS011;4185;41.506;24.938;2023-02-01T04:35:57;19.30;;;11.87;;
8293;SDS011;4185;41.506;24.938;2023-02-01T04:38:24;6.43;;;5.50;;
8293;SDS011;4185;41.506;24.938;2023-02-01T04:40:51;7.63;;;5.20;;
8293;SDS011;4185;41.506;24.938;2023-02-01T04:43:20;8.03;;;6.80;;
8293;SDS011;4185;41.506;24.938;2023-02-01T04:45:47;16.40;;;8.40;;
8293;SDS011;4185;41.506;24.938;2023-02-01T04:48:14;14.20;;;7.83;;
8293;SDS011;4185;41.506;24.938;2023-02-01T04:50:42;10.87;;;7.03;;
8293;SDS011;4185;41.506;24.938;2023-02-01T04:53:10;15.60;;;9.50;;
8293;SDS011;4185;41.506;24.938;2023-02-01T04:55:37;6.67;;;5.77;;
8293;SDS011;4185;41.506;24.938;2023-02-01T04:58:04;6.50;;;4.93;;
8293;SDS011;4185;41.506;24.938;2023-02-01T05:00:32;10.17;;;6.30;;
8293;SDS011;4185;41.506;24.938;2023-02-01T05:02:59;6.17;;;5.57;;
8293;SDS011;4185;41.506;24.938;2023-02-01T05:05:26;11.80;;;7.87;;
8293;SDS011;4185;41.506;24.938;2023-02-01T05:07:53;12.33;;;7.57;;
8293;SDS011;4185;41.506;24.938;2023-02-01T05:10:20;18.63;;;7.20;;
8293;SDS011;4185;41.506;24.938;2023-02-01T05:12:47;10.87;;;6.13;;
8293;SDS011;4185;41.506;24.938;2023-02-01T05:15:32;15.17;;;8.83;;
8293;SDS011;4185;41.506;24.938;2023-02-01T05:17:59;13.77;;;8.03;;
8293;SDS011;4185;41.506;24.938;2023-02-01T05:20:26;12.13;;;7.20;;
8293;SDS011;4185;41.506;24.938;2023-02-01T05:22:53;9.93;;;6.97;;
8293;SDS011;4185;41.506;24.938;2023-02-01T05:25:20;21.73;;;10.27;;
8293;SDS011;4185;41.506;24.938;2023-02-01T05:27:47;15.43;;;9.60;;
8293;SDS011;4185;41.506;24.938;2023-02-01T05:30:14;17.17;;;11.70;;
8293;SDS011;4185;41.506;24.938;2023-02-01T05:32:42;39.20;;;19.70;;
8293;SDS011;4185;41.506;24.938;2023-02-01T05:35:09;17.73;;;12.03;;
8293;SDS011;4185;41.506;24.938;2023-02-01T05:37:36;9.30;;;7.10;;
8293;SDS011;4185;41.506;24.938;2023-02-01T05:40:03;11.30;;;8.40;;
8293;SDS011;4185;41.506;24.938;2023-02-01T05:42:32;15.70;;;9.93;;
8293;SDS011;4185;41.506;24.938;2023-02-01T05:44:58;16.17;;;8.70;;
8293;SDS011;4185;41.506;24.938;2023-02-01T05:47:25;16.83;;;9.90;;
8293;SDS011;4185;41.506;24.938;2023-02-01T05:49:53;9.47;;;7.73;;
8293;SDS011;4185;41.506;24.938;2023-02-01T05:52:20;9.27;;;7.63;;
8293;SDS011;4185;41.506;24.938;2023-02-01T05:54:47;15.90;;;9.60;;
8293;SDS011;4185;41.506;24.938;2023-02-01T05:57:14;20.23;;;13.23;;
8293;SDS011;4185;41.506;24.938;2023-02-01T05:59:41;35.70;;;18.10;;
8293;SDS011;4185;41.506;24.938;2023-02-01T06:02:09;42.40;;;22.57;;
8293;SDS011;4185;41.506;24.938;2023-02-01T06:04:36;38.07;;;19.50;;
8293;SDS011;4185;41.506;24.938;2023-02-01T06:07:06;22.83;;;13.47;;
8293;SDS011;4185;41.506;24.938;2023-02-01T06:09:35;9.97;;;8.67;;
8293;SDS011;4185;41.506;24.938;2023-02-01T06:12:02;13.80;;;10.23;;
8293;SDS011;4185;41.506;24.938;2023-02-01T06:14:29;20.07;;;12.13;;
8293;SDS011;4185;41.506;24.938;2023-02-01T06:16:56;22.37;;;14.53;;
8293;SDS011;4185;41.506;24.938;2023-02-01T06:19:23;18.83;;;11.57;;
8293;SDS011;4185;41.506;24.938;2023-02-01T06:21:50;16.53;;;10.93;;
8293;SDS011;4185;41.506;24.938;2023-02-01T06:24:18;31.00;;;21.37;;
8293;SDS011;4185;41.506;24.938;2023-02-01T06:26:45;8.10;;;6.80;;
8293;SDS011;4185;41.506;24.938;2023-02-01T06:29:12;14.13;;;9.87;;
8293;SDS011;4185;41.506;24.938;2023-02-01T06:31:40;14.77;;;9.70;;
8293;SDS011;4185;41.506;24.938;2023-02-01T06:34:07;11.27;;;8.30;;
8293;SDS011;4185;41.506;24.938;2023-02-01T06:36:34;17.27;;;10.53;;
8293;SDS011;4185;41.506;24.938;2023-02-01T06:39:02;15.33;;;11.17;;
8293;SDS011;4185;41.506;24.938;2023-02-01T06:41:30;13.53;;;10.03;;
8293;SDS011;4185;41.506;24.938;2023-02-01T06:43:59;20.50;;;11.90;;
8293;SDS011;4185;41.506;24.938;2023-02-01T06:46:26;16.50;;;10.43;;
8293;SDS011;4185;41.506;24.938;2023-02-01T06:48:53;15.33;;;11.50;;
8293;SDS011;4185;41.506;24.938;2023-02-01T06:51:21;22.83;;;13.60;;
8293;SDS011;4185;41.506;24.938;2023-02-01T06:53:49;17.80;;;12.27;;
8293;SDS011;4185;41.506;24.938;2023-02-01T06:56:16;26.90;;;16.87;;
8293;SDS011;4185;41.506;24.938;2023-02-01T06:58:44;25.83;;;15.20;;
8293;SDS011;4185;41.506;24.938;2023-02-01T07:01:11;31.20;;;18.20;;
8293;SDS011;4185;41.506;24.938;2023-02-01T07:03:39;43.47;;;24.47;;
8293;SDS011;4185;41.506;24.938;2023-02-01T07:06:06;41.83;;;22.30;;
8293;SDS011;4185;41.506;24.938;2023-02-01T07:08:34;18.17;;;13.00;;
8293;SDS011;4185;41.506;24.938;2023-02-01T07:11:02;23.07;;;14.73;;
8293;SDS011;4185;41.506;24.938;2023-02-01T07:13:29;27.50;;;14.40;;
8293;SDS011;4185;41.506;24.938;2023-02-01T07:16:01;25.93;;;16.77;;
8293;SDS011;4185;41.506;24.938;2023-02-01T07:18:30;54.30;;;27.97;;
8293;SDS011;4185;41.506;24.938;2023-02-01T07:20:57;48.30;;;26.80;;
8293;SDS011;4185;41.506;24.938;2023-02-01T07:23:25;39.93;;;24.60;;
8293;SDS011;4185;41.506;24.938;2023-02-01T07:25:53;56.23;;;29.23;;
8293;SDS011;4185;41.506;24.938;2023-02-01T07:28:21;49.43;;;24.43;;
8293;SDS011;4185;41.506;24.938;2023-02-01T07:30:48;27.10;;;19.03;;
8293;SDS011;4185;41.506;24.938;2023-02-01T07:33:18;43.17;;;25.10;;
8293;SDS011;4185;41.506;24.938;2023-02-01T07:35:46;52.07;;;27.43;;
8293;SDS011;4185;41.506;24.938;2023-02-01T07:38:13;57.43;;;29.70;;
8293;SDS011;4185;41.506;24.938;2023-02-01T07:40:41;44.63;;;27.20;;
8293;SDS011;4185;41.506;24.938;2023-02-01T07:43:08;59.17;;;32.30;;
8293;SDS011;4185;41.506;24.938;2023-02-01T07:45:35;35.43;;;23.47;;
8293;SDS011;4185;41.506;24.938;2023-02-01T07:48:03;42.83;;;26.53;;
8293;SDS011;4185;41.506;24.938;2023-02-01T07:50:31;44.50;;;27.13;;
8293;SDS011;4185;41.506;24.938;2023-02-01T07:52:58;34.77;;;23.43;;
8293;SDS011;4185;41.506;24.938;2023-02-01T07:55:26;42.90;;;22.67;;
8293;SDS011;4185;41.506;24.938;2023-02-01T07:57:56;61.00;;;30.00;;
8293;SDS011;4185;41.506;24.938;2023-02-01T08:00:23;55.37;;;30.27;;
8293;SDS011;4185;41.506;24.938;2023-02-01T08:03:08;34.27;;;21.03;;
8293;SDS011;4185;41.506;24.938;2023-02-01T08:05:36;67.97;;;36.47;;
8293;SDS011;4185;41.506;24.938;2023-02-01T08:08:03;90.10;;;43.30;;
8293;SDS011;4185;41.506;24.938;2023-02-01T08:10:30;77.20;;;39.37;;
8293;SDS011;4185;41.506;24.938;2023-02-01T08:12:57;49.23;;;28.30;;
8293;SDS011;4185;41.506;24.938;2023-02-01T08:15:25;47.83;;;27.70;;
8293;SDS011;4185;41.506;24.938;2023-02-01T08:17:52;82.17;;;38.47;;
8293;SDS011;4185;41.506;24.938;2023-02-01T08:20:20;68.40;;;37.27;;
8293;SDS011;4185;41.506;24.938;2023-02-01T08:22:49;136.80;;;62.20;;
8293;SDS011;4185;41.506;24.938;2023-02-01T08:25:16;101.77;;;47.20;;
8293;SDS011;4185;41.506;24.938;2023-02-01T08:27:44;93.47;;;42.57;;
8293;SDS011;4185;41.506;24.938;2023-02-01T08:30:11;102.10;;;45.10;;
8293;SDS011;4185;41.506;24.938;2023-02-01T08:32:39;96.10;;;46.80;;
8293;SDS011;4185;41.506;24.938;2023-02-01T08:35:06;120.13;;;52.80;;
8293;SDS011;4185;41.506;24.938;2023-02-01T08:37:34;146.60;;;62.17;;
8293;SDS011;4185;41.506;24.938;2023-02-01T08:40:03;115.90;;;56.57;;
8293;SDS011;4185;41.506;24.938;2023-02-01T08:42:30;82.40;;;39.37;;
8293;SDS011;4185;41.506;24.938;2023-02-01T08:45:14;59.27;;;33.33;;
8293;SDS011;4185;41.506;24.938;2023-02-01T08:47:41;97.63;;;42.43;;
8293;SDS011;4185;41.506;24.938;2023-02-01T08:50:09;98.70;;;48.20;;
8293;SDS011;4185;41.506;24.938;2023-02-01T08:52:36;121.07;;;51.40;;
8293;SDS011;4185;41.506;24.938;2023-02-01T08:55:05;92.63;;;42.03;;
8293;SDS011;4185;41.506;24.938;2023-02-01T08:57:32;64.70;;;30.77;;
8293;SDS011;4185;41.506;24.938;2023-02-01T08:59:59;89.90;;;37.73;;
8293;SDS011;4185;41.506;24.938;2023-02-01T09:02:27;46.40;;;25.53;;
8293;SDS011;4185;41.506;24.938;2023-02-01T09:04:54;52.33;;;27.07;;
8293;SDS011;4185;41.506;24.938;2023-02-01T09:07:22;64.40;;;28.17;;
8293;SDS011;4185;41.506;24.938;2023-02-01T09:09:48;51.93;;;25.27;;
8293;SDS011;4185;41.506;24.938;2023-02-01T09:12:17;32.00;;;18.03;;
8293;SDS011;4185;41.506;24.938;2023-02-01T09:14:43;37.93;;;20.53;;
8293;SDS011;4185;41.506;24.938;2023-02-01T09:17:10;25.63;;;15.20;;
8293;SDS011;4185;41.506;24.938;2023-02-01T09:19:38;25.83;;;14.40;;
8293;SDS011;4185;41.506;24.938;2023-02-01T09:22:05;19.57;;;11.77;;
8293;SDS011;4185;41.506;24.938;2023-02-01T09:24:32;21.23;;;11.87;;
8293;SDS011;4185;41.506;24.938;2023-02-01T09:26:59;27.30;;;16.70;;
8293;SDS011;4185;41.506;24.938;2023-02-01T09:29:27;23.33;;;14.83;;
8293;SDS011;4185;41.506;24.938;2023-02-01T09:31:54;27.73;;;15.73;;
8293;SDS011;4185;41.506;24.938;2023-02-01T09:34:21;21.63;;;14.17;;
8293;SDS011;4185;41.506;24.938;2023-02-01T09:36:48;25.93;;;14.50;;
8293;SDS011;4185;41.506;24.938;2023-02-01T09:39:15;20.93;;;13.27;;
8293;SDS011;4185;41.506;24.938;2023-02-01T09:41:45;25.77;;;14.20;;
8293;SDS011;4185;41.506;24.938;2023-02-01T09:44:23;24.50;;;14.03;;
8293;SDS011;4185;41.506;24.938;2023-02-01T09:47:10;14.77;;;9.93;;
8293;SDS011;4185;41.506;24.938;2023-02-01T09:49:39;13.07;;;8.60;;
8293;SDS011;4185;41.506;24.938;2023-02-01T09:52:15;12.67;;;8.43;;
8293;SDS011;4185;41.506;24.938;2023-02-01T09:54:49;16.23;;;9.93;;
8293;SDS011;4185;41.506;24.938;2023-02-01T09:57:23;11.07;;;7.57;;
8293;SDS011;4185;41.506;24.938;2023-02-01T09:59:56;11.60;;;7.03;;
8293;SDS011;4185;41.506;24.938;2023-02-01T10:02:28;7.43;;;4.90;;
8293;SDS011;4185;41.506;24.938;2023-02-01T10:04:57;14.07;;;9.23;;
8293;SDS011;4185;41.506;24.938;2023-02-01T10:07:27;8.57;;;6.47;;
8293;SDS011;4185;41.506;24.938;2023-02-01T10:10:07;5.37;;;4.53;;
8293;SDS011;4185;41.506;24.938;2023-02-01T10:12:50;6.70;;;5.13;;
8293;SDS011;4185;41.506;24.938;2023-02-01T10:15:40;9.93;;;5.60;;
8293;SDS011;4185;41.506;24.938;2023-02-01T10:18:20;4.10;;;3.70;;
8293;SDS011;4185;41.506;24.938;2023-02-01T10:21:02;6.23;;;4.60;;
8293;SDS011;4185;41.506;24.938;2023-02-01T10:26:32;6.40;;;5.30;;
8293;SDS011;4185;41.506;24.938;2023-02-01T10:29:04;7.23;;;5.93;;
8293;SDS011;4185;41.506;24.938;2023-02-01T10:31:43;11.60;;;6.93;;
8293;SDS011;4185;41.506;24.938;2023-02-01T10:34:13;6.90;;;5.37;;
8293;SDS011;4185;41.506;24.938;2023-02-01T10:36:50;4.63;;;3.93;;
8293;SDS011;4185;41.506;24.938;2023-02-01T10:39:20;5.97;;;4.50;;
8293;SDS011;4185;41.506;24.938;2023-02-01T10:41:47;4.63;;;3.60;;
8293;SDS011;4185;41.506;24.938;2023-02-01T10:44:16;7.57;;;5.47;;
8293;SDS011;4185;41.506;24.938;2023-02-01T10:46:48;5.77;;;4.40;;
8293;SDS011;4185;41.506;24.938;2023-02-01T10:49:17;8.90;;;5.77;;
8293;SDS011;4185;41.506;24.938;2023-02-01T10:51:47;6.40;;;5.07;;
8293;SDS011;4185;41.506;24.938;2023-02-01T10:54:21;5.10;;;4.60;;
8293;SDS011;4185;41.506;24.938;2023-02-01T10:56:57;6.53;;;4.87;;
8293;SDS011;4185;41.506;24.938;2023-02-01T10:59:25;5.97;;;4.70;;
8293;SDS011;4185;41.506;24.938;2023-02-01T11:01:59;3.30;;;3.00;;
8293;SDS011;4185;41.506;24.938;2023-02-01T11:04:28;3.70;;;3.17;;
8293;SDS011;4185;41.506;24.938;2023-02-01T11:07:07;3.43;;;3.13;;
8293;SDS011;4185;41.506;24.938;2023-02-01T11:09:43;3.53;;;2.97;;
8293;SDS011;4185;41.506;24.938;2023-02-01T11:12:22;2.97;;;2.77;;
8293;SDS011;4185;41.506;24.938;2023-02-01T11:14:59;14.17;;;7.43;;
8293;SDS011;4185;41.506;24.938;2023-02-01T11:17:34;6.50;;;4.67;;
8293;SDS011;4185;41.506;24.938;2023-02-01T11:20:08;4.60;;;4.20;;
8293;SDS011;4185;41.506;24.938;2023-02-01T11:22:45;6.67;;;4.30;;
8293;SDS011;4185;41.506;24.938;2023-02-01T11:25:13;6.07;;;4.60;;
8293;SDS011;4185;41.506;24.938;2023-02-01T11:27:42;6.20;;;5.30;;
8293;SDS011;4185;41.506;24.938;2023-02-01T11:30:14;5.63;;;4.33;;
8293;SDS011;4185;41.506;24.938;2023-02-01T11:32:45;7.97;;;5.40;;
8293;SDS011;4185;41.506;24.938;2023-02-01T11:35:15;5.23;;;4.47;;
8293;SDS011;4185;41.506;24.938;2023-02-01T11:37:48;10.07;;;6.53;;
8293;SDS011;4185;41.506;24.938;2023-02-01T11:40:25;3.57;;;3.20;;
8293;SDS011;4185;41.506;24.938;2023-02-01T11:42:54;4.80;;;3.80;;
8293;SDS011;4185;41.506;24.938;2023-02-01T11:45:25;2.80;;;2.60;;
8293;SDS011;4185;41.506;24.938;2023-02-01T11:47:55;3.27;;;2.67;;
8293;SDS011;4185;41.506;24.938;2023-02-01T11:50:26;2.60;;;2.40;;
8293;SDS011;4185;41.506;24.938;2023-02-01T11:53:04;2.57;;;2.37;;
8293;SDS011;4185;41.506;24.938;2023-02-01T11:55:44;2.97;;;2.67;;
8293;SDS011;4185;41.506;24.938;2023-02-01T11:58:32;2.97;;;2.77;;
8293;SDS011;4185;41.506;24.938;2023-02-01T12:01:17;3.10;;;2.90;;
8293;SDS011;4185;41.506;24.938;2023-02-01T12:07:17;4.77;;;4.20;;
8293;SDS011;4185;41.506;24.938;2023-02-01T12:09:52;4.67;;;3.33;;
8293;SDS011;4185;41.506;24.938;2023-02-01T12:12:31;2.30;;;2.10;;
8293;SDS011;4185;41.506;24.938;2023-02-01T12:18:12;7.03;;;5.20;;
8293;SDS011;4185;41.506;24.938;2023-02-01T12:21:02;5.00;;;4.17;;
8293;SDS011;4185;41.506;24.938;2023-02-01T12:23:41;3.80;;;3.50;;
8293;SDS011;4185;41.506;24.938;2023-02-01T12:26:29;7.13;;;5.40;;
8293;SDS011;4185;41.506;24.938;2023-02-01T12:29:17;4.63;;;4.03;;
8293;SDS011;4185;41.506;24.938;2023-02-01T12:32:03;10.50;;;5.70;;
8293;SDS011;4185;41.506;24.938;2023-02-01T12:34:44;3.37;;;2.87;;
8293;SDS011;4185;41.506;24.938;2023-02-01T12:37:32;5.07;;;4.17;;
8293;SDS011;4185;41.506;24.938;2023-02-01T12:40:12;8.80;;;6.23;;
8293;SDS011;4185;41.506;24.938;2023-02-01T12:42:52;2.60;;;2.40;;
8293;SDS011;4185;41.506;24.938;2023-02-01T12:45:25;4.20;;;3.13;;
8293;SDS011;4185;41.506;24.938;2023-02-01T12:47:57;22.00;;;13.23;;
8293;SDS011;4185;41.506;24.938;2023-02-01T12:50:29;4.77;;;3.43;;
8293;SDS011;4185;41.506;24.938;2023-02-01T12:53:06;3.77;;;3.47;;
8293;SDS011;4185;41.506;24.938;2023-02-01T12:55:41;5.03;;;4.00;;
8293;SDS011;4185;41.506;24.938;2023-02-01T12:58:14;3.40;;;3.10;;
8293;SDS011;4185;41.506;24.938;2023-02-01T13:00:45;3.07;;;2.73;;
8293;SDS011;4185;41.506;24.938;2023-02-01T13:03:26;1.90;;;1.80;;
8293;SDS011;4185;41.506;24.938;2023-02-01T13:05:59;4.37;;;3.87;;
8293;SDS011;4185;41.506;24.938;2023-02-01T13:08:36;11.23;;;5.63;;
8293;SDS011;4185;41.506;24.938;2023-02-01T13:11:09;2.50;;;2.30;;
8293;SDS011;4185;41.506;24.938;2023-02-01T13:13:44;3.40;;;2.80;;
8293;SDS011;4185;41.506;24.938;2023-02-01T13:16:15;7.73;;;4.77;;
8293;SDS011;4185;41.506;24.938;2023-02-01T13:18:50;3.97;;;2.70;;
8293;SDS011;4185;41.506;24.938;2023-02-01T13:21:21;3.30;;;2.70;;
8293;SDS011;4185;41.506;24.938;2023-02-01T13:23:53;3.40;;;2.77;;
8293;SDS011;4185;41.506;24.938;2023-02-01T13:26:20;4.27;;;3.40;;
8293;SDS011;4185;41.506;24.938;2023-02-01T13:28:47;8.07;;;4.80;;
8293;SDS011;4185;41.506;24.938;2023-02-01T13:31:32;9.53;;;5.00;;
8293;SDS011;4185;41.506;24.938;2023-02-01T13:37:22;5.67;;;4.27;;
8293;SDS011;4185;41.506;24.938;2023-02-01T13:40:07;6.97;;;3.53;;
8293;SDS011;4185;41.506;24.938;2023-02-01T13:42:46;12.40;;;7.63;;
8293;SDS011;4185;41.506;24.938;2023-02-01T13:45:17;3.73;;;3.30;;
8293;SDS011;4185;41.506;24.938;2023-02-01T13:47:47;4.40;;;4.00;;
8293;SDS011;4185;41.506;24.938;2023-02-01T13:50:20;8.37;;;5.40;;
8293;SDS011;4185;41.506;24.938;2023-02-01T13:52:51;16.80;;;10.57;;
8293;SDS011;4185;41.506;24.938;2023-02-01T13:55:32;8.63;;;5.90;;
8293;SDS011;4185;41.506;24.938;2023-02-01T13:58:06;17.77;;;9.07;;
8293;SDS011;4185;41.506;24.938;2023-02-01T14:00:43;13.33;;;8.27;;
8293;SDS011;4185;41.506;24.938;2023-02-01T14:03:12;13.23;;;7.90;;
8293;SDS011;4185;41.506;24.938;2023-02-01T14:05:56;14.53;;;9.33;;
8293;SDS011;4185;41.506;24.938;2023-02-01T14:08:40;14.90;;;8.70;;
8293;SDS011;4185;41.506;24.938;2023-02-01T14:23:23;11.40;;;7.37;;
8293;SDS011;4185;41.506;24.938;2023-02-01T14:28:51;18.87;;;11.30;;
8293;SDS011;4185;41.506;24.938;2023-02-01T14:31:33;9.73;;;6.57;;
8293;SDS011;4185;41.506;24.938;2023-02-01T14:34:21;4.40;;;4.00;;
8293;SDS011;4185;41.506;24.938;2023-02-01T14:36:54;5.50;;;4.43;;
8293;SDS011;4185;41.506;24.938;2023-02-01T14:39:29;3.00;;;2.70;;
8293;SDS011;4185;41.506;24.938;2023-02-01T14:42:01;2.43;;;2.30;;
8293;SDS011;4185;41.506;24.938;2023-02-01T14:44:35;4.57;;;3.37;;
8293;SDS011;4185;41.506;24.938;2023-02-01T14:47:03;6.27;;;4.53;;
8293;SDS011;4185;41.506;24.938;2023-02-01T14:49:33;6.77;;;4.17;;
8293;SDS011;4185;41.506;24.938;2023-02-01T14:52:02;4.37;;;3.40;;
8293;SDS011;4185;41.506;24.938;2023-02-01T14:54:36;7.77;;;5.30;;
8293;SDS011;4185;41.506;24.938;2023-02-01T14:57:08;10.17;;;4.77;;
8293;SDS011;4185;41.506;24.938;2023-02-01T14:59:43;19.47;;;8.27;;
8293;SDS011;4185;41.506;24.938;2023-02-01T15:02:17;16.77;;;9.50;;
8293;SDS011;4185;41.506;24.938;2023-02-01T15:04:50;17.00;;;8.70;;
8293;SDS011;4185;41.506;24.938;2023-02-01T15:07:20;26.13;;;12.77;;
8293;SDS011;4185;41.506;24.938;2023-02-01T15:09:49;25.07;;;12.60;;
8293;SDS011;4185;41.506;24.938;2023-02-01T15:12:18;9.73;;;5.60;;
8293;SDS011;4185;41.506;24.938;2023-02-01T15:15:08;7.03;;;4.63;;
8293;SDS011;4185;41.506;24.938;2023-02-01T15:17:37;11.07;;;8.13;;
8293;SDS011;4185;41.506;24.938;2023-02-01T15:20:12;9.37;;;6.53;;
8293;SDS011;4185;41.506;24.938;2023-02-01T15:22:40;8.97;;;6.50;;
8293;SDS011;4185;41.506;24.938;2023-02-01T15:25:17;10.10;;;7.00;;
8293;SDS011;4185;41.506;24.938;2023-02-01T15:27:46;9.23;;;7.07;;
8293;SDS011;4185;41.506;24.938;2023-02-01T15:30:17;7.80;;;6.00;;
8293;SDS011;4185;41.506;24.938;2023-02-01T15:32:46;11.37;;;5.70;;
8293;SDS011;4185;41.506;24.938;2023-02-01T15:35:32;29.77;;;13.80;;
8293;SDS011;4185;41.506;24.938;2023-02-01T15:41:08;14.10;;;7.93;;
8293;SDS011;4185;41.506;24.938;2023-02-01T15:43:40;54.80;;;26.27;;
8293;SDS011;4185;41.506;24.938;2023-02-01T15:46:12;33.37;;;18.03;;
8293;SDS011;4185;41.506;24.938;2023-02-01T15:48:43;18.30;;;10.97;;
8293;SDS011;4185;41.506;24.938;2023-02-01T15:51:15;23.27;;;13.90;;
8293;SDS011;4185;41.506;24.938;2023-02-01T15:53:46;12.47;;;7.80;;
8293;SDS011;4185;41.506;24.938;2023-02-01T15:56:15;16.90;;;9.10;;
8293;SDS011;4185;41.506;24.938;2023-02-01T15:58:48;26.97;;;12.33;;